Scottsburg, IN (47170)

10:02 PM EDT on June 22, 2017 (GMT -0400)
home@device | | Change Station
Active Advisory: Flash Flood Watch Active Notice: Flash Flood Watch

Elev 616 ft 38.67 °N, 85.84 °W | Updated 6 seconds ago

Rain
Rain
71.4 °F
Feels Like 71.4 °F
N
5.6
Wind Variable Wind from East
Gusts 11.9 mph

Today
High -- | Low -- °F
--% Chance of Precip.
Yesterday
High -- | Low -- °F
Precip. -- in
Pressure 29.86 in
Visibility 10.0 miles
Clouds Mostly Cloudy 700 ft
Overcast 1600 ft
Dew Point 71 °F
Humidity 98%
Rainfall 0.18 in
Snow Depth Not available.
6:18 AM 9:11 PM
Waning Crescent, 2% visible
METAR KLOU 230153Z AUTO 15004KT 10SM BKN007 OVC016 23/23 A2987 RMK AO2 RAE11 CIG 006V013 SLP110 P0001 T02280228
Pressure 29.86 in
Visibility 10.0 miles
Clouds Mostly Cloudy 700 ft
Overcast 1600 ft
Dew Point 71 °F
Humidity 98%
Rainfall 0.18 in
Snow Depth Not available.
6:18 AM 9:11 PM
Waning Crescent, 2% visible
METAR KLOU 230153Z AUTO 15004KT 10SM BKN007 OVC016 23/23 A2987 RMK AO2 RAE11 CIG 006V013 SLP110 P0001 T02280228

Get Your Daily Forecast Email!

Thanks for signing up!

Be on the lookout for a verification email in your inbox.

You'll start receiving severe weather alerts in your inbox..

×

10-Day Weather Forecast

Almanac

Astronomy

Jun. 22, 2017 Rise Set
Actual Time
Civil Twilight
Nautical Twilight
Astronomical Twilight
Moon
Length of Visible Light
Length of Day
Tomorrow will be .
, % of the Moon is Illuminated

Today's Extremes

State Highs State Lows

Community

WunderPhotos

Category 6

Welcome to Category 6. This is the collective home for Weather Underground's featured writeups by Dr. Jeff Masters (right), Bob Henson (left), Chris Burt, and other regular contributors.

Nearby

Air Quality

  Air Quality AQ Index Pollutant
Not available.

Snow Depth

Station Depth Elevation

Earthquake Activity

City Distance Mag. Time & Date
Minimum magnitude displayed is 2.5.

Coastal Water Temperatures

Place Temperature

Stations

Nearby Weather Stations

Station Location Temp. Windchill Dew Point Humidity Wind Precip. Elev Updated Type
                   

Watches & Warnings

Flash Flood Watch
Issued: 12:18 PM CDT Jun. 22, 2017 – National Weather Service

... Flash Flood Watch in effect from late tonight through Friday
night...

The National Weather Service in Louisville has issued a

* Flash Flood Watch for southern Indiana.

* From late tonight through Friday night

* a cold front coming in from the northwest will join forces with
the remnants of Tropical Storm Cindy to produce widespread rain,
possibly heavy.

Precautionary/preparedness actions...

A Flash Flood Watch means that conditions may develop that lead
to flash flooding. Flash flooding is a very dangerous situation.

You should monitor later forecasts and be prepared to take action
should flash flood warnings be issued.